Time;durP1;ratioP1;P1;durP2;ratioP2;P2;SDS_P1;SDS_P2;PMS_P1;PMS_P2;Temp;Humidity;BMP_temperature;BMP_pressure;BME280_temperature;BME280_humidity;BME280_pressure;Samples;Min_cycle;Max_cycle;Signal;HPM_P1;HPM_P2
2022/11/07 00:02:20;;;;;;;5.05;2.53;;;14.00;68.30;;;;;;5037371;28;20220;-53
2022/11/07 00:04:47;;;;;;;4.22;2.03;;;14.00;68.30;;;;;;5038658;28;20410;-52
2022/11/07 00:07:16;;;;;;;3.97;2.28;;;14.00;68.30;;;;;;5048760;28;20148;-53
2022/11/07 00:09:45;;;;;;;4.00;2.20;;;14.10;68.40;;;;;;5050088;28;20041;-53
2022/11/07 00:12:12;;;;;;;3.13;2.28;;;14.10;68.30;;;;;;5033397;28;20460;-52
2022/11/07 00:14:39;;;;;;;3.92;2.28;;;14.10;68.20;;;;;;5032635;28;20039;-53
2022/11/07 00:17:10;;;;;;;2.08;1.50;;;14.10;68.20;;;;;;5042292;28;20055;-53
2022/11/07 00:19:42;;;;;;;2.70;1.85;;;14.10;68.20;;;;;;5043848;28;20065;-52
2022/11/07 00:22:08;;;;;;;4.03;2.08;;;14.10;68.10;;;;;;5033369;28;20045;-53
2022/11/07 00:24:35;;;;;;;3.00;2.28;;;14.10;68.00;;;;;;5040927;28;20152;-53
2022/11/07 00:27:09;;;;;;;2.65;1.63;;;14.00;68.70;;;;;;5047226;28;20048;-49
2022/11/07 00:29:40;;;;;;;4.50;1.92;;;14.00;68.30;;;;;;5041553;28;20040;-53
2022/11/07 00:32:11;;;;;;;4.38;2.03;;;14.00;68.20;;;;;;5042005;28;20049;-52
2022/11/07 00:34:40;;;;;;;3.60;1.55;;;14.00;68.20;;;;;;5050166;28;20120;-52
2022/11/07 00:37:07;;;;;;;2.03;1.60;;;13.90;68.20;;;;;;5031983;28;20560;-51
2022/11/07 00:39:36;;;;;;;1.88;1.73;;;13.90;68.30;;;;;;5032553;28;20043;-51
2022/11/07 00:42:03;;;;;;;3.50;1.85;;;13.90;68.40;;;;;;5041221;28;20094;-53
2022/11/07 00:44:32;;;;;;;3.10;1.70;;;13.80;68.40;;;;;;5041551;28;20048;-52
2022/11/07 00:47:01;;;;;;;4.70;1.70;;;13.80;68.50;;;;;;5045344;28;20048;-50
2022/11/07 00:49:28;;;;;;;4.40;1.88;;;13.80;68.60;;;;;;5036988;28;20047;-53
2022/11/07 00:51:57;;;;;;;4.35;2.30;;;13.70;69.20;;;;;;5041478;28;20041;-52
2022/11/07 00:54:25;;;;;;;3.47;1.50;;;13.70;68.90;;;;;;5052946;28;20098;-52
2022/11/07 00:56:55;;;;;;;1.60;1.50;;;13.70;68.80;;;;;;5033490;28;20037;-53
2022/11/07 00:59:28;;;;;;;3.60;1.40;;;13.70;68.90;;;;;;5043217;28;20549;-53
2022/11/07 01:01:54;;;;;;;3.60;1.95;;;13.60;69.00;;;;;;5045913;28;20041;-53
2022/11/07 01:07:11;;;;;;;2.42;1.35;;;13.60;69.10;;;;;;5037886;28;20052;-50
2022/11/07 01:09:38;;;;;;;3.08;1.40;;;13.60;69.10;;;;;;5044584;28;20055;-53
2022/11/07 01:12:09;;;;;;;4.00;1.50;;;13.50;69.20;;;;;;5054258;28;20045;-53
2022/11/07 01:14:35;;;;;;;3.63;2.15;;;13.50;69.20;;;;;;5038739;28;20045;-52
2022/11/07 01:17:05;;;;;;;2.95;1.50;;;13.50;69.40;;;;;;5034359;28;20055;-53
2022/11/07 01:19:34;;;;;;;2.85;1.65;;;13.50;69.60;;;;;;5045741;28;20404;-53
2022/11/07 01:22:02;;;;;;;5.70;2.10;;;13.40;69.50;;;;;;5048165;28;20048;-52
2022/11/07 01:24:28;;;;;;;3.40;1.77;;;13.40;69.70;;;;;;5032551;28;20401;-51
2022/11/07 01:26:57;;;;;;;2.08;1.70;;;13.40;69.70;;;;;;5040085;28;20052;-49
2022/11/07 01:29:27;;;;;;;2.65;1.40;;;13.40;69.90;;;;;;5043670;28;20055;-52
2022/11/07 01:31:56;;;;;;;7.82;1.83;;;13.40;70.00;;;;;;5053601;28;20045;-53
2022/11/07 01:34:23;;;;;;;5.28;1.25;;;13.40;70.20;;;;;;5044574;28;20072;-52
2022/11/07 01:36:52;;;;;;;3.63;1.60;;;13.40;70.30;;;;;;5035743;28;20087;-52
2022/11/07 01:39:19;;;;;;;4.10;1.60;;;13.40;70.40;;;;;;5044563;28;20037;-52
2022/11/07 01:41:56;;;;;;;4.95;1.85;;;13.40;70.40;;;;;;5053318;28;20048;-53
2022/11/07 01:44:24;;;;;;;4.97;1.65;;;13.40;70.50;;;;;;5044603;28;20037;-53
2022/11/07 01:46:56;;;;;;;2.40;1.48;;;13.30;71.20;;;;;;5043878;28;20045;-52
2022/11/07 01:49:33;;;;;;;3.83;1.38;;;13.30;70.90;;;;;;5037707;28;20077;-52
2022/11/07 01:52:10;;;;;;;5.53;1.88;;;13.40;70.90;;;;;;5053390;28;20396;-51
2022/11/07 01:54:51;;;;;;;5.18;1.83;;;13.40;70.90;;;;;;5032060;28;20147;-53
2022/11/07 01:57:48;;;;;;;4.32;1.50;;;13.40;71.00;;;;;;5042617;28;20084;-52
2022/11/07 02:00:20;;;;;;;6.10;1.33;;;13.40;71.50;;;;;;5051713;28;20128;-52
2022/11/07 02:02:51;;;;;;;3.13;1.70;;;13.40;70.90;;;;;;5047397;28;20041;-53
2022/11/07 02:05:37;;;;;;;3.05;2.30;;;13.30;70.90;;;;;;5042839;28;20506;-53
2022/11/07 02:08:07;;;;;;;2.30;1.30;;;13.40;71.20;;;;;;5044812;28;20063;-53
2022/11/07 02:10:38;;;;;;;4.05;1.52;;;13.40;70.90;;;;;;5053262;28;20045;-53
2022/11/07 02:13:06;;;;;;;4.25;1.63;;;13.40;70.90;;;;;;5027375;28;20046;-53
2022/11/07 02:15:35;;;;;;;2.67;1.52;;;13.40;71.10;;;;;;5034449;28;20040;-52
2022/11/07 02:18:03;;;;;;;2.30;1.70;;;13.40;71.90;;;;;;5050052;28;20483;-52
2022/11/07 02:20:36;;;;;;;4.15;1.65;;;13.40;71.30;;;;;;5053026;28;20489;-53
2022/11/07 02:23:35;;;;;;;3.77;1.67;;;13.40;71.30;;;;;;5029243;28;20049;-53
2022/11/07 02:26:04;;;;;;;4.75;1.67;;;13.40;71.30;;;;;;5039700;28;20071;-52
2022/11/07 02:28:33;;;;;;;5.25;2.05;;;13.50;71.00;;;;;;5045178;28;20044;-52
2022/11/07 02:30:59;;;;;;;3.85;2.05;;;13.50;71.20;;;;;;5045153;28;20038;-52
2022/11/07 02:33:31;;;;;;;5.32;1.85;;;13.50;71.20;;;;;;5039245;28;20547;-53
2022/11/07 02:36:01;;;;;;;2.25;1.63;;;13.50;71.20;;;;;;5035671;28;20064;-53
2022/11/07 02:38:36;;;;;;;2.88;1.33;;;13.50;71.20;;;;;;5032758;28;20049;-52
2022/11/07 02:41:20;;;;;;;5.60;2.15;;;13.50;71.50;;;;;;5028690;28;20439;-53
2022/11/07 02:44:00;;;;;;;4.70;2.08;;;13.50;71.30;;;;;;5035441;28;20036;-52
2022/11/07 02:46:38;;;;;;;7.40;1.80;;;13.50;71.60;;;;;;5043789;28;20049;-53
2022/11/07 02:49:08;;;;;;;2.58;1.30;;;13.40;71.20;;;;;;5046255;28;20048;-52
2022/11/07 02:51:34;;;;;;;5.05;1.70;;;13.50;71.20;;;;;;5031773;28;20041;-51
2022/11/07 02:54:04;;;;;;;4.60;1.35;;;13.50;71.20;;;;;;5070976;23;20555;-46
2022/11/07 02:56:33;;;;;;;5.05;1.83;;;13.50;71.30;;;;;;5031922;28;20048;-46
2022/11/07 02:59:01;;;;;;;7.03;2.55;;;13.50;71.50;;;;;;5032213;28;20048;-48
2022/11/07 03:01:30;;;;;;;3.88;1.45;;;13.50;71.40;;;;;;5032189;28;20045;-47
2022/11/07 03:03:57;;;;;;;4.07;1.60;;;13.60;71.40;;;;;;5036311;28;20048;-46
2022/11/07 03:06:24;;;;;;;6.47;1.80;;;13.60;71.40;;;;;;5043173;28;20048;-49
2022/11/07 03:08:52;;;;;;;4.03;1.60;;;13.60;71.40;;;;;;5041022;28;20095;-46
2022/11/07 03:11:21;;;;;;;3.83;1.65;;;13.60;71.40;;;;;;5042771;28;20063;-46
2022/11/07 03:13:49;;;;;;;6.88;2.15;;;13.60;71.30;;;;;;5038396;28;20438;-48
2022/11/07 03:16:19;;;;;;;6.03;2.13;;;13.60;71.30;;;;;;5033662;28;20037;-48
2022/11/07 03:18:46;;;;;;;4.57;1.38;;;13.60;71.30;;;;;;5051546;28;20041;-50
2022/11/07 03:21:15;;;;;;;5.53;1.52;;;13.60;71.20;;;;;;5051543;28;20068;-50
2022/11/07 03:23:42;;;;;;;6.28;2.30;;;13.60;71.20;;;;;;5031695;28;20084;-49
2022/11/07 03:26:08;;;;;;;5.63;2.35;;;13.60;71.10;;;;;;5041908;28;20041;-51
2022/11/07 03:28:38;;;;;;;7.15;1.40;;;13.60;71.20;;;;;;5033388;28;20047;-51
2022/11/07 03:31:05;;;;;;;4.65;1.75;;;13.60;71.40;;;;;;5041573;28;20037;-49
2022/11/07 03:33:32;;;;;;;5.00;1.45;;;13.60;71.20;;;;;;5050850;28;20139;-49
2022/11/07 03:35:58;;;;;;;4.60;1.90;;;13.60;71.20;;;;;;5050981;28;20037;-49
2022/11/07 03:38:25;;;;;;;6.32;1.73;;;13.60;71.20;;;;;;5036293;28;20086;-51
2022/11/07 03:40:54;;;;;;;4.95;1.88;;;13.60;71.80;;;;;;5042067;28;20045;-51
2022/11/07 03:43:21;;;;;;;5.30;1.90;;;13.60;71.20;;;;;;5050261;28;20037;-49
2022/11/07 03:45:50;;;;;;;5.90;2.20;;;13.60;71.20;;;;;;5045521;28;20559;-51
2022/11/07 03:48:16;;;;;;;5.78;1.20;;;13.60;71.20;;;;;;5041102;28;20045;-50
2022/11/07 03:50:43;;;;;;;9.60;1.83;;;13.60;71.20;;;;;;5042931;28;20413;-49
2022/11/07 03:53:15;;;;;;;4.90;1.80;;;13.60;71.30;;;;;;5050610;28;20048;-49
2022/11/07 03:55:53;;;;;;;5.50;2.10;;;13.60;71.40;;;;;;5035649;28;20041;-49
2022/11/07 03:58:24;;;;;;;7.70;1.70;;;13.60;71.60;;;;;;5041853;28;20098;-52
2022/11/07 04:00:55;;;;;;;3.85;1.98;;;13.60;71.50;;;;;;5050814;28;20695;-49
2022/11/07 04:03:24;;;;;;;3.95;2.55;;;13.60;71.60;;;;;;5024895;28;20060;-49
2022/11/07 04:05:56;;;;;;;4.40;1.83;;;13.60;71.50;;;;;;5028326;28;20049;-49
2022/11/07 04:08:23;;;;;;;5.50;1.75;;;13.60;71.50;;;;;;5041147;28;20584;-49
2022/11/07 04:10:55;;;;;;;3.92;1.48;;;13.60;71.50;;;;;;5045781;28;20056;-49
2022/11/07 04:18:56;;;;;;;4.15;1.52;;;13.70;71.60;;;;;;5049023;28;20051;-50
2022/11/07 04:21:26;;;;;;;5.82;1.80;;;13.70;71.40;;;;;;5050770;28;20604;-51
2022/11/07 04:23:56;;;;;;;5.43;1.70;;;13.60;71.40;;;;;;5029398;28;20102;-50
2022/11/07 04:29:24;;;;;;;5.15;1.52;;;13.60;71.40;;;;;;4999561;28;20060;-49
2022/11/07 04:31:53;;;;;;;7.20;1.70;;;13.60;71.30;;;;;;5032520;28;20053;-49
2022/11/07 04:34:20;;;;;;;3.05;1.55;;;13.60;71.30;;;;;;5044008;28;20056;-49
2022/11/07 04:36:46;;;;;;;6.85;2.08;;;13.60;71.30;;;;;;5043931;28;20458;-49
2022/11/07 04:39:18;;;;;;;5.00;2.38;;;13.60;71.40;;;;;;5050743;28;20039;-49
2022/11/07 04:41:53;;;;;;;5.28;1.60;;;13.60;71.40;;;;;;5039085;28;20033;-49
2022/11/07 04:44:19;;;;;;;4.88;2.50;;;13.60;72.10;;;;;;5038591;28;20040;-49
2022/11/07 04:46:46;;;;;;;3.65;2.03;;;13.60;71.40;;;;;;5042086;28;20051;-51
2022/11/07 04:49:19;;;;;;;3.08;1.63;;;13.60;71.30;;;;;;5050566;28;20041;-49
2022/11/07 04:51:46;;;;;;;9.80;2.35;;;13.60;71.40;;;;;;5036665;28;20513;-51
2022/11/07 04:54:13;;;;;;;6.70;2.55;;;13.60;71.40;;;;;;5040868;28;20076;-49
2022/11/07 04:56:45;;;;;;;5.50;1.50;;;13.60;71.50;;;;;;5043744;28;20404;-49
2022/11/07 04:59:12;;;;;;;6.65;2.53;;;13.60;71.50;;;;;;5046466;28;20049;-49
2022/11/07 05:01:41;;;;;;;4.55;1.67;;;13.60;71.40;;;;;;5030264;28;20043;-51
2022/11/07 05:04:09;;;;;;;7.13;2.03;;;13.60;71.50;;;;;;5042012;28;20041;-49
2022/11/07 05:06:39;;;;;;;9.88;2.10;;;13.60;71.40;;;;;;5043418;28;20527;-52
2022/11/07 05:09:08;;;;;;;4.00;1.80;;;13.60;71.40;;;;;;5042862;28;20453;-51
2022/11/07 05:11:38;;;;;;;7.50;2.25;;;13.60;71.40;;;;;;5042369;28;20563;-51
2022/11/07 05:14:07;;;;;;;4.97;1.98;;;13.60;71.30;;;;;;5041219;28;20068;-50
2022/11/07 05:16:34;;;;;;;5.78;1.80;;;13.70;71.30;;;;;;5044254;28;20065;-49
2022/11/07 05:19:01;;;;;;;3.65;1.67;;;13.60;71.30;;;;;;5027432;28;20459;-51
2022/11/07 05:21:28;;;;;;;4.60;2.00;;;13.70;71.30;;;;;;5028367;28;20033;-50
2022/11/07 05:23:56;;;;;;;7.60;2.10;;;13.70;71.30;;;;;;5036404;28;20209;-52
2022/11/07 05:26:25;;;;;;;3.75;1.55;;;13.80;71.30;;;;;;5048251;28;20144;-51
2022/11/07 05:29:01;;;;;;;6.38;1.85;;;13.80;71.20;;;;;;5039391;28;20049;-49
2022/11/07 05:31:30;;;;;;;7.15;2.30;;;13.80;71.20;;;;;;5024861;28;20045;-50
2022/11/07 05:34:02;;;;;;;8.80;2.13;;;13.90;71.20;;;;;;5038783;28;20149;-52
2022/11/07 05:36:29;;;;;;;8.35;1.73;;;13.90;71.20;;;;;;5010482;28;20039;-49
2022/11/07 05:38:57;;;;;;;6.07;1.85;;;13.90;71.00;;;;;;5016539;28;20413;-49
2022/11/07 05:41:25;;;;;;;7.10;2.13;;;14.00;71.00;;;;;;5044174;28;20037;-51
2022/11/07 05:43:56;;;;;;;6.28;1.60;;;14.00;70.90;;;;;;5044877;28;20126;-50
2022/11/07 05:46:22;;;;;;;8.35;1.95;;;14.10;70.80;;;;;;5013656;28;20053;-54
2022/11/07 05:48:50;;;;;;;7.80;1.90;;;14.10;70.70;;;;;;5038595;28;20049;-49
2022/11/07 05:51:23;;;;;;;4.78;1.23;;;14.20;70.50;;;;;;5044042;28;20526;-50
2022/11/07 05:53:52;;;;;;;4.05;1.95;;;14.20;70.40;;;;;;5053075;28;20544;-52
2022/11/07 05:56:19;;;;;;;7.38;1.88;;;14.20;70.30;;;;;;5034904;28;20041;-49
2022/11/07 05:58:50;;;;;;;5.50;1.90;;;14.30;70.20;;;;;;5038485;28;20454;-51
2022/11/07 06:01:26;;;;;;;5.00;2.17;;;14.30;70.10;;;;;;5044729;28;20067;-50
2022/11/07 06:03:55;;;;;;;4.00;2.05;;;14.30;70.00;;;;;;5052897;28;20131;-49
2022/11/07 06:06:33;;;;;;;10.43;1.80;;;14.30;70.00;;;;;;5048351;28;20053;-50
2022/11/07 06:09:00;;;;;;;4.20;1.48;;;14.30;69.90;;;;;;5030779;28;20405;-51
2022/11/07 06:11:30;;;;;;;5.22;1.73;;;14.40;69.90;;;;;;5033051;28;20113;-49
2022/11/07 06:13:57;;;;;;;9.63;2.22;;;14.40;69.90;;;;;;5031275;28;20045;-51
2022/11/07 06:16:29;;;;;;;5.75;1.42;;;14.40;69.70;;;;;;5032753;28;20037;-50
2022/11/07 06:18:56;;;;;;;8.23;1.98;;;14.40;69.70;;;;;;5039714;28;20045;-49
2022/11/07 06:21:23;;;;;;;6.93;1.42;;;14.50;69.70;;;;;;5044759;28;20041;-52
2022/11/07 06:23:51;;;;;;;4.25;1.52;;;14.50;69.60;;;;;;5020039;28;20645;-52
2022/11/07 06:26:19;;;;;;;7.75;2.05;;;14.60;69.60;;;;;;5031003;28;20061;-50
2022/11/07 06:28:49;;;;;;;5.50;1.48;;;14.50;69.40;;;;;;5042308;28;20045;-49
2022/11/07 06:31:16;;;;;;;8.95;2.30;;;14.50;69.40;;;;;;5030560;28;20038;-52
2022/11/07 06:33:45;;;;;;;3.60;1.10;;;14.60;69.30;;;;;;5045236;28;20047;-51
2022/11/07 06:36:15;;;;;;;6.82;1.35;;;14.60;69.30;;;;;;5031090;28;20045;-49
2022/11/07 06:38:44;;;;;;;4.28;1.67;;;14.60;69.30;;;;;;5035466;28;20045;-52
2022/11/07 06:41:15;;;;;;;5.78;1.50;;;14.60;69.20;;;;;;5051373;28;20120;-50
2022/11/07 06:43:42;;;;;;;6.60;1.80;;;14.60;69.20;;;;;;5047601;28;20045;-52
2022/11/07 06:46:12;;;;;;;10.70;2.20;;;14.60;69.20;;;;;;5039563;28;20125;-51
2022/11/07 06:48:40;;;;;;;5.90;1.92;;;14.60;69.20;;;;;;5044427;28;20052;-50
2022/11/07 06:51:10;;;;;;;6.63;2.00;;;14.70;69.20;;;;;;5052151;28;20490;-52
2022/11/07 06:53:38;;;;;;;3.97;1.33;;;14.60;69.20;;;;;;5045159;28;20045;-53
2022/11/07 06:56:06;;;;;;;12.30;1.95;;;14.70;69.20;;;;;;5046306;28;20041;-50
2022/11/07 06:58:37;;;;;;;9.18;2.25;;;14.70;69.30;;;;;;5037331;28;20047;-52
2022/11/07 07:01:11;;;;;;;8.27;2.08;;;14.70;69.30;;;;;;5052515;28;20060;-52
2022/11/07 07:03:42;;;;;;;7.47;2.28;;;14.70;69.30;;;;;;5045548;28;20132;-50
2022/11/07 07:06:13;;;;;;;6.30;2.03;;;14.70;69.30;;;;;;5046034;28;20088;-50
2022/11/07 07:08:49;;;;;;;7.07;2.45;;;14.80;69.40;;;;;;5045886;28;20498;-49
2022/11/07 07:11:18;;;;;;;5.07;2.33;;;14.80;69.40;;;;;;5051589;28;20052;-50
2022/11/07 07:13:44;;;;;;;7.22;2.28;;;14.80;69.40;;;;;;5035735;28;20072;-51
2022/11/07 07:16:11;;;;;;;5.63;1.85;;;14.80;69.40;;;;;;5041316;28;20045;-51
2022/11/07 07:18:41;;;;;;;5.78;2.17;;;14.80;69.30;;;;;;5039243;28;20521;-52
2022/11/07 07:21:10;;;;;;;5.80;1.55;;;14.90;69.40;;;;;;5030576;28;20044;-50
2022/11/07 07:23:46;;;;;;;5.80;2.30;;;14.80;69.40;;;;;;5040330;28;20072;-51
2022/11/07 07:26:14;;;;;;;6.25;1.67;;;14.90;69.50;;;;;;5043622;28;20048;-51
2022/11/07 07:28:42;;;;;;;6.63;1.52;;;14.90;69.50;;;;;;5050830;28;20655;-50
2022/11/07 07:31:14;;;;;;;3.08;1.35;;;15.00;69.60;;;;;;5025527;28;20073;-49
2022/11/07 07:33:49;;;;;;;8.18;1.88;;;15.00;69.70;;;;;;5042388;28;20053;-50
2022/11/07 07:36:16;;;;;;;6.85;1.77;;;15.00;69.60;;;;;;5042062;28;20048;-49
2022/11/07 07:38:52;;;;;;;4.90;1.52;;;15.00;69.60;;;;;;5052078;28;20045;-50
2022/11/07 07:41:19;;;;;;;;;;;15.10;69.60;;;;;;5040695;28;20037;-49
2022/11/07 07:43:46;;;;;;;6.70;1.98;;;15.20;69.70;;;;;;5043297;28;20295;-51
2022/11/07 07:46:18;;;;;;;8.35;1.98;;;15.20;69.40;;;;;;5043366;28;20040;-50
2022/11/07 07:48:54;;;;;;;6.45;1.70;;;15.20;69.50;;;;;;5039839;28;20045;-52
2022/11/07 07:51:26;;;;;;;6.65;2.10;;;15.30;69.50;;;;;;5028735;28;20061;-50
2022/11/07 07:53:52;;;;;;;7.32;2.08;;;15.30;69.40;;;;;;5039609;28;20042;-50
2022/11/07 07:56:21;;;;;;;7.75;1.40;;;15.40;69.30;;;;;;5049988;28;20095;-51
2022/11/07 07:58:47;;;;;;;6.70;1.77;;;15.40;69.30;;;;;;5046070;28;20041;-49
2022/11/07 08:01:16;;;;;;;6.40;1.58;;;15.40;69.20;;;;;;5036218;28;20064;-51
2022/11/07 08:03:44;;;;;;;6.57;2.65;;;15.50;69.20;;;;;;5042998;28;20593;-50
2022/11/07 08:06:31;;;;;;;7.25;1.90;;;15.50;69.10;;;;;;5051694;28;20040;-49
2022/11/07 08:08:57;;;;;;;5.13;1.85;;;15.60;69.10;;;;;;5034789;28;20046;-51
2022/11/07 08:11:24;;;;;;;5.63;1.33;;;15.60;69.00;;;;;;5047315;28;20075;-52
2022/11/07 08:13:58;;;;;;;8.40;2.10;;;15.70;69.00;;;;;;5045352;28;20055;-52
2022/11/07 08:16:27;;;;;;;7.97;2.35;;;15.70;68.90;;;;;;5040295;28;20060;-51
2022/11/07 08:18:58;;;;;;;5.72;1.58;;;15.80;68.80;;;;;;5030284;28;20045;-49
2022/11/07 08:21:25;;;;;;;6.63;1.70;;;15.80;68.70;;;;;;5045374;28;20520;-52
2022/11/07 08:23:55;;;;;;;5.18;1.42;;;15.90;68.70;;;;;;5044811;28;20049;-51
2022/11/07 08:26:21;;;;;;;4.40;1.75;;;15.90;68.60;;;;;;5043918;28;20061;-51
2022/11/07 08:28:55;;;;;;;5.03;1.50;;;16.00;69.10;;;;;;5034350;28;20444;-50
2022/11/07 08:31:24;;;;;;;4.57;1.30;;;16.00;68.40;;;;;;5032723;28;20581;-52
2022/11/07 08:33:50;;;;;;;6.43;2.10;;;16.10;68.30;;;;;;5040865;28;20120;-50
2022/11/07 08:36:22;;;;;;;4.43;1.30;;;16.10;68.10;;;;;;5049022;28;20083;-50
2022/11/07 08:38:51;;;;;;;6.45;1.83;;;16.10;68.10;;;;;;5041181;28;20048;-49
2022/11/07 08:41:19;;;;;;;6.20;1.90;;;16.20;68.10;;;;;;5031781;28;20046;-49
2022/11/07 08:43:48;;;;;;;8.52;2.50;;;16.20;68.10;;;;;;5042531;28;20049;-49
2022/11/07 08:46:17;;;;;;;7.43;1.73;;;16.30;68.00;;;;;;5041684;28;20045;-51
2022/11/07 08:48:46;;;;;;;6.63;1.30;;;16.30;68.00;;;;;;5041071;28;20091;-50
2022/11/07 08:51:14;;;;;;;7.85;1.67;;;16.30;67.90;;;;;;5042678;28;20040;-49
2022/11/07 08:53:42;;;;;;;5.68;2.10;;;16.40;68.00;;;;;;5050624;28;20045;-52
2022/11/07 08:56:09;;;;;;;7.03;1.75;;;16.40;67.80;;;;;;5034009;28;20045;-49
2022/11/07 08:58:36;;;;;;;4.32;1.50;;;16.40;67.70;;;;;;5042639;28;20631;-50
2022/11/07 09:01:07;;;;;;;5.40;1.63;;;16.40;67.60;;;;;;5050746;28;20115;-49
2022/11/07 09:03:36;;;;;;;6.13;1.63;;;16.50;67.60;;;;;;5050721;28;20033;-50
2022/11/07 09:06:13;;;;;;;4.72;1.50;;;16.50;67.50;;;;;;5021309;28;20135;-50
2022/11/07 09:08:40;;;;;;;3.78;1.40;;;16.50;67.50;;;;;;5039797;28;20049;-49
2022/11/07 09:11:10;;;;;;;4.47;1.70;;;16.50;67.60;;;;;;5047515;28;20045;-50
2022/11/07 09:13:41;;;;;;;6.90;2.33;;;16.50;67.60;;;;;;5050632;28;20128;-50
2022/11/07 09:16:10;;;;;;;7.40;1.75;;;16.50;67.60;;;;;;5029847;28;20056;-52
2022/11/07 09:18:39;;;;;;;2.65;1.40;;;16.50;67.70;;;;;;5073214;22;20413;-53
2022/11/07 09:21:14;;;;;;;5.10;1.80;;;16.40;67.80;;;;;;5054706;28;20490;-52
2022/11/07 09:23:50;;;;;;;6.90;1.08;;;16.40;68.00;;;;;;5032669;28;20057;-52
2022/11/07 09:26:19;;;;;;;5.82;1.50;;;16.40;68.20;;;;;;5047701;28;20094;-52
2022/11/07 09:28:47;;;;;;;5.78;1.52;;;16.40;68.30;;;;;;5047560;28;20064;-53
2022/11/07 09:31:22;;;;;;;7.07;1.55;;;16.40;68.50;;;;;;5054560;28;20532;-53
2022/11/07 09:33:51;;;;;;;6.05;1.42;;;16.40;68.80;;;;;;5045202;28;20052;-53
2022/11/07 09:36:17;;;;;;;4.18;1.58;;;16.40;69.00;;;;;;5046976;28;20059;-53
2022/11/07 09:38:44;;;;;;;4.78;1.75;;;16.30;69.20;;;;;;5047798;28;20091;-52
2022/11/07 09:41:39;;;;;;;3.72;1.13;;;16.30;69.40;;;;;;5043862;28;20041;-52
2022/11/07 09:44:28;;;;;;;4.32;1.50;;;16.30;69.80;;;;;;5029123;28;20049;-53
2022/11/07 09:47:17;;;;;;;4.18;1.75;;;16.30;69.80;;;;;;5042458;28;20116;-53
2022/11/07 09:49:56;;;;;;;4.88;1.40;;;16.30;69.90;;;;;;5031885;28;20041;-53
2022/11/07 09:52:53;;;;;;;10.77;2.28;;;16.30;69.90;;;;;;5044339;28;20040;-53
2022/11/07 09:55:34;;;;;;;7.72;2.33;;;16.30;70.10;;;;;;5045521;28;20051;-52
2022/11/07 09:58:13;;;;;;;8.45;1.80;;;16.30;70.10;;;;;;5041851;28;20038;-53
2022/11/07 10:00:40;;;;;;;4.95;1.77;;;16.30;70.00;;;;;;5035064;28;20079;-53
2022/11/07 10:03:11;;;;;;;3.42;1.75;;;16.30;69.90;;;;;;5038217;28;20041;-53
2022/11/07 10:06:10;;;;;;;2.78;1.33;;;16.20;69.90;;;;;;5045308;28;20036;-53
2022/11/07 10:08:46;;;;;;;4.85;1.45;;;16.30;70.30;;;;;;5053798;28;20681;-53
2022/11/07 10:11:31;;;;;;;5.90;1.83;;;16.30;70.10;;;;;;5040531;28;20107;-53
2022/11/07 10:14:30;;;;;;;3.97;1.73;;;16.30;70.30;;;;;;5044850;28;20091;-54
2022/11/07 10:17:07;;;;;;;6.70;1.63;;;16.30;70.20;;;;;;5035165;28;20470;-53
2022/11/07 10:20:02;;;;;;;6.88;1.60;;;16.30;69.80;;;;;;5018398;28;20040;-53
2022/11/07 10:23:09;;;;;;;8.80;1.87;;;16.40;70.10;;;;;;5037757;28;20576;-53
2022/11/07 10:25:56;;;;;;;5.30;1.60;;;16.40;70.20;;;;;;5036574;28;20049;-53
2022/11/07 10:28:34;;;;;;;14.50;3.10;;;16.40;70.00;;;;;;5053546;28;20047;-53
2022/11/07 10:31:05;;;;;;;8.98;2.13;;;16.50;69.80;;;;;;5025969;28;20445;-52
2022/11/07 10:33:35;;;;;;;4.03;1.63;;;16.50;69.60;;;;;;5035788;28;20045;-53
2022/11/07 10:36:17;;;;;;;5.75;1.90;;;16.50;69.50;;;;;;5048774;28;20041;-53
2022/11/07 10:38:46;;;;;;;6.38;1.95;;;16.60;69.40;;;;;;5043515;28;20038;-53
2022/11/07 10:41:18;;;;;;;4.38;1.77;;;16.60;69.30;;;;;;5047505;28;20036;-53
2022/11/07 10:44:09;;;;;;;5.57;1.65;;;16.70;69.30;;;;;;5033112;28;20117;-54
2022/11/07 10:46:40;;;;;;;7.63;1.75;;;16.80;69.10;;;;;;5032984;28;20045;-53
2022/11/07 10:49:28;;;;;;;7.32;1.90;;;16.80;69.00;;;;;;5033758;28;20460;-53
2022/11/07 10:52:07;;;;;;;8.13;1.80;;;16.90;68.80;;;;;;5044699;28;20045;-53
2022/11/07 10:54:40;;;;;;;9.27;1.95;;;17.00;68.50;;;;;;5052470;28;20060;-53
2022/11/07 10:57:18;;;;;;;7.22;2.05;;;17.00;68.30;;;;;;5030611;28;20437;-53
2022/11/07 10:59:51;;;;;;;4.93;2.08;;;17.00;68.20;;;;;;5041177;28;20040;-53
2022/11/07 11:02:39;;;;;;;5.15;1.50;;;17.00;68.20;;;;;;5044386;28;20060;-49
2022/11/07 11:05:27;;;;;;;4.32;1.40;;;17.20;68.00;;;;;;5052548;28;20494;-53
2022/11/07 11:08:21;;;;;;;6.57;1.50;;;17.10;67.60;;;;;;5036126;28;20121;-53
2022/11/07 11:10:50;;;;;;;3.90;1.42;;;17.10;67.70;;;;;;5040924;28;20294;-52
2022/11/07 11:13:31;;;;;;;6.57;2.17;;;17.10;67.50;;;;;;5031157;28;20053;-53
2022/11/07 11:16:13;;;;;;;4.50;2.47;;;17.10;67.20;;;;;;5028523;28;20045;-53
2022/11/07 11:18:55;;;;;;;6.80;2.22;;;17.10;67.10;;;;;;5034959;28;20299;-53
2022/11/07 11:21:24;;;;;;;4.30;1.77;;;17.10;67.00;;;;;;5044226;28;20124;-53
2022/11/07 11:23:54;;;;;;;8.07;1.73;;;17.10;67.30;;;;;;5031693;28;20038;-53
2022/11/07 11:26:35;;;;;;;7.15;2.40;;;17.20;67.30;;;;;;5039802;28;20405;-49
2022/11/07 11:29:10;;;;;;;4.40;1.83;;;17.20;67.40;;;;;;5043918;28;20497;-53
2022/11/07 11:31:49;;;;;;;4.85;1.95;;;17.30;67.10;;;;;;5034247;28;20076;-53
2022/11/07 11:34:49;;;;;;;6.70;2.08;;;17.30;67.00;;;;;;5035448;28;20142;-53
2022/11/07 11:37:23;;;;;;;9.88;2.97;;;17.40;66.80;;;;;;5033206;28;20506;-53
2022/11/07 11:40:01;;;;;;;4.60;1.63;;;17.50;66.60;;;;;;5043587;28;20045;-53
2022/11/07 11:42:46;;;;;;;4.07;1.48;;;17.60;66.50;;;;;;5051674;28;20053;-51
2022/11/07 11:45:22;;;;;;;7.03;1.67;;;17.70;66.50;;;;;;5034054;28;20046;-53
2022/11/07 11:48:39;;;;;;;5.38;1.83;;;17.80;65.90;;;;;;5044835;28;20061;-53
2022/11/07 11:51:14;;;;;;;8.52;2.42;;;17.90;65.60;;;;;;5012505;28;20462;-53
2022/11/07 11:53:42;;;;;;;6.90;1.60;;;18.00;65.10;;;;;;5015250;28;20087;-53
2022/11/07 11:56:27;;;;;;;7.95;2.10;;;18.00;65.30;;;;;;5045222;28;20048;-53
2022/11/07 11:58:59;;;;;;;6.40;1.90;;;18.10;64.60;;;;;;5046212;28;20040;-54
2022/11/07 12:01:45;;;;;;;;;;;18.10;64.70;;;;;;5043186;28;20051;-53
2022/11/07 12:04:34;;;;;;;5.85;2.20;;;18.20;65.20;;;;;;5041814;28;19927;-53
2022/11/07 12:07:33;;;;;;;5.40;1.58;;;18.30;64.20;;;;;;5047210;28;20524;-53
2022/11/07 12:10:11;;;;;;;4.53;1.40;;;18.30;64.20;;;;;;5027815;28;20421;-53
2022/11/07 12:13:10;;;;;;;6.82;1.98;;;18.40;64.30;;;;;;5034141;28;20034;-54
2022/11/07 12:15:50;;;;;;;5.95;1.40;;;18.50;63.60;;;;;;5034284;28;20537;-54
2022/11/07 12:18:23;;;;;;;7.45;1.67;;;18.60;63.40;;;;;;5039422;28;20051;-53
2022/11/07 12:21:08;;;;;;;4.28;1.63;;;18.60;63.10;;;;;;5032545;28;20045;-53
2022/11/07 12:24:01;;;;;;;6.85;1.42;;;18.60;62.80;;;;;;5038273;28;20117;-53
2022/11/07 12:26:38;;;;;;;2.83;1.17;;;18.70;62.50;;;;;;5050712;28;20033;-53
2022/11/07 12:29:21;;;;;;;3.92;1.35;;;18.70;62.30;;;;;;5033874;28;20154;-52
2022/11/07 12:32:11;;;;;;;2.92;1.05;;;18.70;61.50;;;;;;5033274;28;20464;-53
2022/11/07 12:34:59;;;;;;;5.20;1.20;;;18.70;61.40;;;;;;5038915;28;20401;-53
2022/11/07 12:37:45;;;;;;;5.32;1.33;;;18.70;61.10;;;;;;5049045;28;20131;-53
2022/11/07 12:40:20;;;;;;;4.40;1.10;;;18.70;61.10;;;;;;5036600;28;20491;-53
2022/11/07 12:43:19;;;;;;;5.45;1.17;;;18.70;61.10;;;;;;5045268;28;20041;-53
2022/11/07 12:46:09;;;;;;;5.82;1.27;;;18.60;61.10;;;;;;5011439;28;20460;-53
2022/11/07 12:48:57;;;;;;;4.00;2.03;;;18.50;61.20;;;;;;5018030;28;20051;-53
2022/11/07 12:52:02;;;;;;;6.65;1.40;;;18.50;61.20;;;;;;5031597;28;20045;-53
2022/11/07 12:55:01;;;;;;;3.08;1.05;;;18.40;61.30;;;;;;5046083;28;20588;-53
2022/11/07 12:57:35;;;;;;;5.57;1.15;;;18.40;61.90;;;;;;5054096;28;20116;-53
2022/11/07 13:00:21;;;;;;;5.00;1.63;;;18.30;61.90;;;;;;5042328;28;20520;-52
2022/11/07 13:03:25;;;;;;;3.95;1.17;;;18.30;61.80;;;;;;5043072;28;20095;-53
2022/11/07 13:06:13;;;;;;;3.28;1.40;;;18.30;61.60;;;;;;5015147;28;20052;-53
2022/11/07 13:09:12;;;;;;;2.67;1.20;;;18.30;62.00;;;;;;5020759;28;20412;-53
2022/11/07 13:12:14;;;;;;;4.22;1.33;;;18.30;61.80;;;;;;5014097;28;20049;-53
2022/11/07 13:14:42;;;;;;;4.10;1.23;;;18.30;62.00;;;;;;5014318;28;20506;-53
2022/11/07 13:17:19;;;;;;;4.45;1.85;;;18.20;62.40;;;;;;5023384;28;20053;-54
2022/11/07 13:20:05;;;;;;;6.00;1.55;;;18.30;62.20;;;;;;5033487;28;20041;-50
2022/11/07 13:22:39;;;;;;;5.18;1.42;;;18.20;62.00;;;;;;5044895;28;20045;-53
2022/11/07 13:25:18;;;;;;;2.83;1.55;;;18.20;62.10;;;;;;5049243;28;20219;-55
2022/11/07 13:27:52;;;;;;;3.78;1.75;;;18.20;62.80;;;;;;5030667;28;20454;-53
2022/11/07 13:30:20;;;;;;;8.02;2.33;;;18.20;62.50;;;;;;5030143;28;20052;-53
2022/11/07 13:32:48;;;;;;;7.88;1.50;;;18.30;62.60;;;;;;5041206;28;20525;-54